createdAt,value
2022-11-03T00:01:50.216Z,16.70
2022-11-03T00:06:54.103Z,17.60
2022-11-03T00:11:57.628Z,16.70
2022-11-03T00:17:01.149Z,16.70
2022-11-03T00:22:04.598Z,17.30
2022-11-03T00:27:08.061Z,16.90
2022-11-03T00:32:11.808Z,16.90
2022-11-03T00:37:15.324Z,17.10
2022-11-03T00:42:18.790Z,17.10
2022-11-03T00:47:24.290Z,16.00
2022-11-03T00:52:28.034Z,16.00
2022-11-03T00:57:31.555Z,16.40
2022-11-03T01:02:35.085Z,15.70
2022-11-03T01:07:38.675Z,16.70
2022-11-03T01:12:42.129Z,16.80
2022-11-03T01:17:45.586Z,15.50
2022-11-03T01:22:49.024Z,15.60
2022-11-03T01:27:52.541Z,15.90
2022-11-03T01:32:56.029Z,15.40
2022-11-03T01:37:59.468Z,16.10
2022-11-03T01:43:03.044Z,16.80
2022-11-03T01:48:06.753Z,16.80
2022-11-03T01:53:10.208Z,17.00
2022-11-03T01:58:13.845Z,16.40
2022-11-03T02:03:17.352Z,17.20
2022-11-03T02:08:20.879Z,16.00
2022-11-03T02:13:24.349Z,15.80
2022-11-03T02:18:27.997Z,16.10
2022-11-03T02:23:31.478Z,15.30
2022-11-03T02:28:34.940Z,16.30
2022-11-03T02:33:38.376Z,16.10
2022-11-03T02:38:41.847Z,15.80
2022-11-03T02:43:45.797Z,16.30
2022-11-03T02:48:49.362Z,16.10
2022-11-03T02:53:52.826Z,16.30
2022-11-03T02:58:56.276Z,16.50
2022-11-03T03:03:59.868Z,16.70
2022-11-03T03:09:03.332Z,17.00
2022-11-03T03:14:06.933Z,17.50
2022-11-03T03:19:10.398Z,17.30
2022-11-03T03:24:13.849Z,17.20
2022-11-03T03:29:17.320Z,16.80
2022-11-03T03:34:36.591Z,17.60
2022-11-03T03:39:40.234Z,17.40
2022-11-03T03:44:43.796Z,18.50
2022-11-03T03:49:47.253Z,18.80
2022-11-03T03:54:50.737Z,17.40
2022-11-03T03:59:54.247Z,17.80
2022-11-03T04:05:01.104Z,17.80
2022-11-03T04:10:04.556Z,17.30
2022-11-03T04:15:25.855Z,18.30
2022-11-03T04:20:47.131Z,17.90
2022-11-03T04:25:50.712Z,18.70
2022-11-03T04:30:56.157Z,17.50
2022-11-03T04:36:02.140Z,18.60
2022-11-03T04:41:05.610Z,18.70
2022-11-03T04:46:09.145Z,19.70
2022-11-03T04:51:12.610Z,20.10
2022-11-03T04:56:16.075Z,18.40
2022-11-03T05:01:23.670Z,21.40
2022-11-03T05:06:27.696Z,19.80
2022-11-03T05:11:31.285Z,21.70
2022-11-03T05:16:35.700Z,21.50
2022-11-03T05:21:39.207Z,22.00
2022-11-03T05:26:42.693Z,23.10
2022-11-03T05:31:46.162Z,23.80
2022-11-03T05:36:49.710Z,23.40
2022-11-03T05:41:53.175Z,22.30
2022-11-03T05:46:57.115Z,23.30
2022-11-03T05:52:00.632Z,25.40
2022-11-03T05:57:04.084Z,24.10
2022-11-03T06:02:08.705Z,26.10
2022-11-03T06:12:16.826Z,23.50
2022-11-03T06:17:20.460Z,23.10
2022-11-03T06:22:24.734Z,23.90
2022-11-03T06:27:28.386Z,23.50
2022-11-03T06:32:31.914Z,23.10
2022-11-03T06:37:35.387Z,20.20
2022-11-03T06:42:39.907Z,19.40
2022-11-03T06:47:43.387Z,19.60
2022-11-03T06:57:55.622Z,20.30
2022-11-03T07:02:59.224Z,18.00
2022-11-03T07:08:05.743Z,18.90
2022-11-03T07:13:09.692Z,17.50
2022-11-03T07:18:13.539Z,18.80
2022-11-03T07:23:17.133Z,18.20
2022-11-03T07:28:20.960Z,19.30
2022-11-03T07:33:24.632Z,19.90
2022-11-03T07:38:28.262Z,19.90
2022-11-03T07:43:32.012Z,21.80
2022-11-03T07:48:36.122Z,21.90
2022-11-03T07:53:39.592Z,22.90
2022-11-03T07:58:43.041Z,21.30
2022-11-03T08:03:46.475Z,20.70
2022-11-03T08:08:49.976Z,22.00
2022-11-03T08:13:53.449Z,21.20
2022-11-03T08:18:58.294Z,22.70
2022-11-03T08:24:01.845Z,24.00
2022-11-03T08:29:05.481Z,22.10
2022-11-03T08:34:08.927Z,22.70
2022-11-03T08:39:12.438Z,21.40
2022-11-03T08:44:15.982Z,22.30
2022-11-03T08:49:19.528Z,19.70
2022-11-03T08:54:23.062Z,20.30
2022-11-03T08:59:26.601Z,20.50
2022-11-03T09:04:30.129Z,21.00
2022-11-03T09:20:00.585Z,19.20
2022-11-03T09:25:05.101Z,21.00
2022-11-03T09:30:13.582Z,20.50
2022-11-03T09:35:17.597Z,19.40
2022-11-03T09:40:21.752Z,18.00
2022-11-03T09:45:25.221Z,18.40
2022-11-03T09:50:28.720Z,19.00
2022-11-03T09:55:32.349Z,17.10
2022-11-03T10:00:35.815Z,17.60
2022-11-03T10:05:39.288Z,17.20
2022-11-03T10:10:42.730Z,16.60
2022-11-03T10:15:46.189Z,15.90
2022-11-03T10:20:49.669Z,14.40
2022-11-03T10:25:53.113Z,13.60
2022-11-03T10:31:13.069Z,10.00
2022-11-03T10:36:17.118Z,12.10
2022-11-03T10:41:20.708Z,11.40
2022-11-03T10:46:48.576Z,11.40
2022-11-03T10:51:47.652Z,9.40
2022-11-03T10:56:51.929Z,9.10
2022-11-03T11:01:55.787Z,9.50
2022-11-03T11:06:59.541Z,9.90
2022-11-03T11:12:03.114Z,7.50
2022-11-03T11:17:06.657Z,9.10
2022-11-03T11:22:10.288Z,9.40
2022-11-03T11:27:13.779Z,7.60
2022-11-03T11:32:17.326Z,7.80
2022-11-03T11:37:20.781Z,8.30
2022-11-03T11:42:27.214Z,6.30
2022-11-03T11:47:30.700Z,6.50
2022-11-03T11:52:34.180Z,4.60
2022-11-03T11:57:37.681Z,3.60
2022-11-03T12:02:41.195Z,3.40
2022-11-03T12:07:44.700Z,3.00
2022-11-03T12:12:48.167Z,3.90
2022-11-03T12:17:51.706Z,3.50
2022-11-03T12:22:55.233Z,3.80
2022-11-03T12:27:58.715Z,3.70
2022-11-03T12:33:02.178Z,2.70
2022-11-03T12:38:05.669Z,3.80
2022-11-03T12:43:09.361Z,3.50
2022-11-03T12:48:13.134Z,3.30
2022-11-03T12:53:16.587Z,3.60
2022-11-03T12:58:20.036Z,3.20
2022-11-03T13:03:23.472Z,3.50
2022-11-03T13:08:26.973Z,3.60
2022-11-03T13:13:30.623Z,3.50
2022-11-03T13:18:36.954Z,3.70
2022-11-03T13:23:40.396Z,4.00
2022-11-03T13:28:43.867Z,21.90
2022-11-03T13:33:47.359Z,21.20
2022-11-03T13:38:50.858Z,27.40
2022-11-03T13:43:54.423Z,64.00
2022-11-03T13:59:45.070Z,51.30
2022-11-03T14:04:48.643Z,54.20
2022-11-03T14:09:52.206Z,56.60
2022-11-03T14:14:55.696Z,56.80
2022-11-03T14:20:03.724Z,55.30
2022-11-03T14:25:08.955Z,55.50
2022-11-03T14:30:12.442Z,45.60
2022-11-03T14:35:15.992Z,46.80
2022-11-03T14:40:33.364Z,47.10
2022-11-03T14:45:39.787Z,42.90
2022-11-03T14:50:46.112Z,38.70
2022-11-03T14:55:49.531Z,37.70
2022-11-03T15:00:53.063Z,36.50
2022-11-03T15:05:58.643Z,36.30
2022-11-03T15:11:02.180Z,35.30
2022-11-03T15:16:05.779Z,34.30
2022-11-03T15:21:09.241Z,32.80
2022-11-03T15:26:13.251Z,32.80
2022-11-03T15:31:16.710Z,31.00
2022-11-03T15:36:20.790Z,31.00
2022-11-03T15:41:24.316Z,30.10
2022-11-03T15:46:27.837Z,28.80
2022-11-03T15:51:31.276Z,26.30
2022-11-03T15:56:34.716Z,25.80
2022-11-03T16:01:38.268Z,26.20
2022-11-03T16:12:05.436Z,22.80
2022-11-03T16:17:09.112Z,20.80
2022-11-03T16:22:12.550Z,20.60
2022-11-03T16:27:16.037Z,20.10
2022-11-03T16:32:21.726Z,20.00
2022-11-03T16:37:27.579Z,19.60
2022-11-03T16:42:38.361Z,18.20
2022-11-03T16:47:42.013Z,17.00
2022-11-03T16:52:45.848Z,14.90
2022-11-03T16:57:50.393Z,18.40
2022-11-03T17:02:53.850Z,15.20
2022-11-03T17:07:57.290Z,13.20
2022-11-03T17:13:00.793Z,13.70
2022-11-03T17:18:04.543Z,14.00
2022-11-03T17:23:08.297Z,19.10
2022-11-03T17:28:11.730Z,25.90
2022-11-03T17:33:15.324Z,17.30
2022-11-03T17:38:18.857Z,17.00
2022-11-03T17:43:22.576Z,15.50
2022-11-03T17:48:26.208Z,15.90
2022-11-03T17:53:29.665Z,15.20
2022-11-03T17:58:33.109Z,15.30
2022-11-03T18:03:36.621Z,15.00
2022-11-03T18:08:40.055Z,14.70
2022-11-03T18:13:43.673Z,14.90
2022-11-03T18:18:48.832Z,13.80
2022-11-03T18:23:52.373Z,13.40
2022-11-03T18:28:55.898Z,13.00
2022-11-03T18:34:07.868Z,13.10
2022-11-03T18:39:13.471Z,12.10
2022-11-03T18:44:17.139Z,12.20
2022-11-03T18:49:20.634Z,14.10
2022-11-03T18:54:24.101Z,13.20
2022-11-03T18:59:27.538Z,13.20
2022-11-03T19:04:33.444Z,12.30
2022-11-03T19:09:36.909Z,12.30
2022-11-03T19:14:40.398Z,11.30
2022-11-03T19:19:44.287Z,11.80
2022-11-03T19:24:47.721Z,11.20
2022-11-03T19:29:51.277Z,12.00
2022-11-03T19:34:54.720Z,12.10
2022-11-03T19:39:58.199Z,11.00
2022-11-03T19:45:01.664Z,10.40
2022-11-03T19:50:05.207Z,10.50
2022-11-03T19:55:08.701Z,11.20
2022-11-03T20:00:12.172Z,10.50
2022-11-03T20:05:15.661Z,11.10
2022-11-03T20:10:19.390Z,11.10
2022-11-03T20:15:22.813Z,11.90
2022-11-03T20:20:27.459Z,11.50
2022-11-03T20:25:30.923Z,13.50
2022-11-03T20:30:35.298Z,12.30
2022-11-03T20:35:38.789Z,12.20
2022-11-03T20:40:42.368Z,12.50
2022-11-03T20:45:45.892Z,12.70
2022-11-03T20:50:49.444Z,12.00
2022-11-03T20:55:53.134Z,11.80
2022-11-03T21:00:56.663Z,13.00
2022-11-03T21:06:00.269Z,10.70
2022-11-03T21:11:17.594Z,12.30
2022-11-03T21:16:38.955Z,11.60
2022-11-03T21:21:42.422Z,11.70
2022-11-03T21:26:46.499Z,11.40
2022-11-03T21:31:49.946Z,11.60
2022-11-03T21:36:53.466Z,12.60
2022-11-03T21:42:14.819Z,11.80
2022-11-03T21:47:21.266Z,11.60
2022-11-03T21:52:32.177Z,11.20
2022-11-03T21:57:35.810Z,12.20
2022-11-03T22:02:39.277Z,11.80
2022-11-03T22:07:42.730Z,11.20
2022-11-03T22:12:46.308Z,11.40
2022-11-03T22:17:49.783Z,11.80
2022-11-03T22:23:11.062Z,10.60
2022-11-03T22:28:15.258Z,10.90
2022-11-03T22:33:18.946Z,11.50
2022-11-03T22:38:42.368Z,11.30
2022-11-03T22:44:03.526Z,11.10
2022-11-03T22:49:13.823Z,11.40
2022-11-03T22:54:17.273Z,10.90
2022-11-03T22:59:20.704Z,11.30
2022-11-03T23:04:24.160Z,10.50
2022-11-03T23:09:27.659Z,11.90
2022-11-03T23:14:54.837Z,10.80
2022-11-03T23:20:16.143Z,10.30
2022-11-03T23:25:19.753Z,10.60
2022-11-03T23:30:23.201Z,9.70
2022-11-03T23:35:26.629Z,10.00
2022-11-03T23:40:31.142Z,9.80
2022-11-03T23:45:52.400Z,10.10
2022-11-03T23:50:56.905Z,9.90
2022-11-03T23:56:18.200Z,9.60
